createdAt,value
2022-10-13T00:00:49.411Z,10.90
2022-10-13T00:03:18.024Z,11.90
2022-10-13T00:05:47.624Z,10.60
2022-10-13T00:08:18.855Z,11.40
2022-10-13T00:10:49.335Z,11.70
2022-10-13T00:13:20.504Z,11.07
2022-10-13T00:15:49.347Z,10.47
2022-10-13T00:18:17.561Z,11.17
2022-10-13T00:20:47.673Z,10.27
2022-10-13T00:23:16.036Z,10.50
2022-10-13T00:25:45.261Z,10.60
2022-10-13T00:28:15.353Z,11.03
2022-10-13T00:30:43.812Z,10.60
2022-10-13T00:33:13.975Z,9.90
2022-10-13T00:35:43.207Z,10.10
2022-10-13T00:38:12.340Z,10.30
2022-10-13T00:40:48.120Z,10.10
2022-10-13T00:43:19.486Z,10.20
2022-10-13T00:45:49.925Z,9.20
2022-10-13T00:48:19.621Z,9.57
2022-10-13T00:50:48.439Z,9.63
2022-10-13T00:53:17.931Z,9.70
2022-10-13T00:55:47.791Z,9.83
2022-10-13T00:58:20.287Z,9.40
2022-10-13T01:00:50.756Z,9.43
2022-10-13T01:03:20.171Z,9.33
2022-10-13T01:05:49.576Z,9.67
2022-10-13T01:08:18.889Z,8.60
2022-10-13T01:11:00.032Z,8.90
2022-10-13T01:13:36.760Z,9.00
2022-10-13T01:16:12.774Z,8.43
2022-10-13T01:18:47.412Z,9.33
2022-10-13T01:21:25.655Z,9.00
2022-10-13T01:24:31.375Z,8.50
2022-10-13T01:27:18.827Z,8.57
2022-10-13T01:30:14.096Z,8.00
2022-10-13T01:32:55.480Z,8.07
2022-10-13T01:35:34.076Z,7.80
2022-10-13T01:38:07.943Z,8.03
2022-10-13T01:40:42.008Z,8.53
2022-10-13T01:43:12.913Z,8.77
2022-10-13T01:45:45.573Z,8.87
2022-10-13T01:48:16.504Z,8.30
2022-10-13T01:50:50.763Z,8.40
2022-10-13T01:53:20.500Z,8.87
2022-10-13T01:55:56.175Z,9.17
2022-10-13T01:58:26.249Z,8.43
2022-10-13T02:01:19.079Z,8.13
2022-10-13T02:03:58.684Z,9.37
2022-10-13T02:06:32.415Z,9.10
2022-10-13T02:09:05.842Z,8.70
2022-10-13T02:11:33.814Z,8.47
2022-10-13T02:14:06.041Z,8.93
2022-10-13T02:16:39.254Z,8.43
2022-10-13T02:19:12.231Z,8.87
2022-10-13T02:21:41.231Z,8.50
2022-10-13T02:24:09.878Z,8.17
2022-10-13T02:26:38.371Z,8.43
2022-10-13T02:29:13.843Z,8.40
2022-10-13T02:31:42.437Z,8.63
2022-10-13T02:34:11.955Z,8.33
2022-10-13T02:36:40.071Z,8.07
2022-10-13T02:39:09.167Z,8.40
2022-10-13T02:41:37.156Z,8.40
2022-10-13T02:44:05.143Z,8.47
2022-10-13T02:46:41.680Z,8.83
2022-10-13T02:49:12.056Z,7.97
2022-10-13T02:51:40.534Z,7.87
2022-10-13T02:54:08.689Z,8.00
2022-10-13T02:56:36.582Z,7.53
2022-10-13T02:59:04.905Z,7.87
2022-10-13T03:01:32.993Z,7.67
2022-10-13T03:04:00.980Z,7.57
2022-10-13T03:06:30.243Z,7.87
2022-10-13T03:08:58.155Z,7.90
2022-10-13T03:11:26.152Z,8.40
2022-10-13T03:13:54.172Z,7.90
2022-10-13T03:16:22.008Z,7.97
2022-10-13T03:18:49.924Z,7.93
2022-10-13T03:21:17.760Z,7.80
2022-10-13T03:23:46.915Z,8.07
2022-10-13T03:26:15.470Z,8.20
2022-10-13T03:28:43.368Z,8.00
2022-10-13T03:31:13.114Z,8.20
2022-10-13T03:33:41.286Z,7.57
2022-10-13T03:36:09.622Z,7.83
2022-10-13T03:38:39.116Z,7.60
2022-10-13T03:41:12.229Z,8.37
2022-10-13T03:43:40.984Z,8.00
2022-10-13T03:46:10.454Z,8.37
2022-10-13T03:48:39.255Z,8.67
2022-10-13T03:51:08.083Z,8.27
2022-10-13T03:53:36.214Z,7.73
2022-10-13T03:56:04.975Z,9.13
2022-10-13T03:58:36.176Z,8.10
2022-10-13T04:01:05.553Z,8.70
2022-10-13T04:03:34.101Z,8.40
2022-10-13T04:06:02.593Z,8.83
2022-10-13T04:08:30.500Z,8.43
2022-10-13T04:11:02.382Z,8.43
2022-10-13T04:13:30.418Z,8.90
2022-10-13T04:16:03.085Z,9.50
2022-10-13T04:18:31.111Z,9.07
2022-10-13T04:20:59.111Z,9.20
2022-10-13T04:23:27.056Z,9.20
2022-10-13T04:25:56.367Z,9.17
2022-10-13T04:28:24.762Z,9.50
2022-10-13T04:30:52.637Z,9.07
2022-10-13T04:33:21.820Z,9.60
2022-10-13T04:35:50.071Z,9.37
2022-10-13T04:38:17.871Z,9.73
2022-10-13T04:40:45.688Z,10.23
2022-10-13T04:43:13.566Z,9.63
2022-10-13T04:45:41.359Z,9.63
2022-10-13T04:48:09.160Z,9.47
2022-10-13T04:50:38.578Z,9.97
2022-10-13T04:53:06.465Z,9.57
2022-10-13T04:55:37.066Z,10.27
2022-10-13T04:58:05.156Z,10.40
2022-10-13T05:00:33.040Z,9.70
2022-10-13T05:03:00.876Z,10.23
2022-10-13T05:05:28.779Z,9.43
2022-10-13T05:07:57.883Z,9.57
2022-10-13T05:10:25.678Z,10.33
2022-10-13T05:12:54.790Z,10.07
2022-10-13T05:15:22.611Z,10.20
2022-10-13T05:17:50.467Z,10.07
2022-10-13T05:20:18.590Z,9.30
2022-10-13T05:22:46.411Z,10.07
2022-10-13T05:25:15.704Z,10.40
2022-10-13T05:27:45.057Z,10.30
2022-10-13T05:30:13.831Z,10.00
2022-10-13T05:32:41.619Z,9.47
2022-10-13T05:35:10.439Z,10.70
2022-10-13T05:37:41.414Z,10.83
2022-10-13T05:40:10.331Z,10.47
2022-10-13T05:42:39.725Z,9.70
2022-10-13T05:45:10.532Z,9.60
2022-10-13T05:47:38.364Z,9.87
2022-10-13T05:50:07.264Z,9.93
2022-10-13T05:52:37.667Z,9.90
2022-10-13T05:55:08.395Z,9.80
2022-10-13T05:57:41.050Z,10.37
2022-10-13T06:00:11.284Z,10.63
2022-10-13T06:02:47.127Z,10.50
2022-10-13T06:05:18.155Z,10.23
2022-10-13T06:07:47.972Z,10.37
2022-10-13T06:10:16.372Z,10.87
2022-10-13T06:12:45.663Z,9.53
2022-10-13T06:15:13.455Z,10.30
2022-10-13T06:17:41.399Z,10.07
2022-10-13T06:20:10.260Z,10.60
2022-10-13T06:22:38.899Z,9.77
2022-10-13T06:25:08.429Z,10.17
2022-10-13T06:27:36.257Z,10.87
2022-10-13T06:30:05.909Z,10.03
2022-10-13T06:32:33.872Z,11.23
2022-10-13T06:35:01.763Z,10.40
2022-10-13T06:37:29.568Z,11.00
2022-10-13T06:39:57.386Z,10.73
2022-10-13T06:42:25.657Z,10.80
2022-10-13T06:45:11.612Z,10.33
2022-10-13T06:47:41.476Z,10.63
2022-10-13T06:50:10.144Z,11.70
2022-10-13T06:52:37.984Z,10.63
2022-10-13T06:55:06.503Z,10.80
2022-10-13T06:57:34.810Z,10.60
2022-10-13T07:00:07.363Z,11.50
2022-10-13T07:02:36.515Z,10.63
2022-10-13T07:05:04.768Z,11.00
2022-10-13T07:07:32.736Z,10.70
2022-10-13T07:10:00.571Z,10.50
2022-10-13T07:12:28.430Z,9.70
2022-10-13T07:14:56.225Z,10.30
2022-10-13T07:17:24.040Z,9.70
2022-10-13T07:19:57.161Z,10.23
2022-10-13T07:22:26.019Z,10.73
2022-10-13T07:24:53.835Z,10.60
2022-10-13T07:27:23.248Z,9.77
2022-10-13T07:29:51.498Z,10.63
2022-10-13T07:32:20.446Z,10.23
2022-10-13T07:34:48.415Z,10.23
2022-10-13T07:37:17.918Z,10.33
2022-10-13T07:39:46.028Z,9.90
2022-10-13T07:42:13.854Z,9.90
2022-10-13T07:44:41.696Z,10.07
2022-10-13T07:47:09.582Z,10.17
2022-10-13T07:49:37.543Z,9.63
2022-10-13T07:52:06.075Z,9.90
2022-10-13T07:54:35.241Z,10.13
2022-10-13T07:57:03.259Z,10.23
2022-10-13T07:59:33.346Z,9.80
2022-10-13T08:02:01.851Z,10.00
2022-10-13T08:04:31.043Z,10.00
2022-10-13T08:06:59.322Z,9.23
2022-10-13T08:09:27.892Z,10.70
2022-10-13T08:12:00.624Z,9.03
2022-10-13T08:14:29.959Z,9.33
2022-10-13T08:16:58.365Z,8.80
2022-10-13T08:19:28.257Z,9.40
2022-10-13T08:21:59.186Z,8.60
2022-10-13T08:24:28.552Z,8.77
2022-10-13T08:26:57.923Z,8.50
2022-10-13T08:29:25.856Z,8.20
2022-10-13T08:31:54.381Z,7.97
2022-10-13T08:34:23.147Z,8.37
2022-10-13T08:36:52.965Z,9.53
2022-10-13T08:39:21.882Z,8.27
2022-10-13T08:41:50.273Z,9.63
2022-10-13T08:45:10.937Z,9.03
2022-10-13T08:47:21.477Z,7.80
2022-10-13T08:49:49.520Z,8.03
2022-10-13T08:52:21.513Z,8.17
2022-10-13T08:54:50.807Z,7.83
2022-10-13T08:57:19.404Z,8.17
2022-10-13T08:59:49.604Z,7.40
2022-10-13T09:02:24.749Z,7.60
2022-10-13T09:04:54.223Z,7.70
2022-10-13T09:07:25.905Z,7.40
2022-10-13T09:09:55.396Z,7.57
2022-10-13T09:12:26.138Z,7.67
2022-10-13T09:15:05.164Z,7.90
2022-10-13T09:17:34.233Z,7.10
2022-10-13T09:20:05.757Z,7.60
2022-10-13T09:22:35.815Z,7.20
2022-10-13T09:25:18.239Z,7.47
2022-10-13T09:27:49.684Z,7.13
2022-10-13T09:30:32.326Z,7.73
2022-10-13T09:33:19.615Z,7.20
2022-10-13T09:35:49.522Z,7.40
2022-10-13T09:38:19.865Z,7.07
2022-10-13T09:41:00.233Z,6.87
2022-10-13T09:43:34.106Z,6.77
2022-10-13T09:46:12.775Z,6.97
2022-10-13T09:48:42.302Z,6.53
2022-10-13T09:51:32.114Z,6.70
2022-10-13T09:54:03.476Z,6.70
2022-10-13T09:56:37.997Z,7.00
2022-10-13T09:59:15.090Z,7.07
2022-10-13T10:01:47.017Z,8.00
2022-10-13T10:04:18.259Z,6.83
2022-10-13T10:06:46.958Z,6.50
2022-10-13T10:09:32.975Z,7.07
2022-10-13T10:12:27.695Z,6.47
2022-10-13T10:14:56.406Z,6.87
2022-10-13T10:17:32.186Z,6.83
2022-10-13T10:20:07.890Z,6.40
2022-10-13T10:22:41.093Z,6.53
2022-10-13T10:25:27.140Z,6.57
2022-10-13T10:28:16.572Z,6.30
2022-10-13T10:30:49.620Z,6.40
2022-10-13T10:33:22.660Z,6.40
2022-10-13T10:35:58.953Z,6.03
2022-10-13T10:38:35.858Z,5.90
2022-10-13T10:41:13.394Z,6.00
2022-10-13T10:43:50.589Z,6.07
2022-10-13T10:46:21.266Z,5.90
2022-10-13T10:48:55.435Z,5.63
2022-10-13T10:51:27.767Z,6.57
2022-10-13T10:54:02.383Z,5.60
2022-10-13T10:56:35.546Z,5.80
2022-10-13T10:59:23.405Z,6.90
2022-10-13T11:02:01.902Z,6.60
2022-10-13T11:04:41.881Z,5.97
2022-10-13T11:07:12.940Z,5.87
2022-10-13T11:10:02.927Z,6.60
2022-10-13T11:13:03.957Z,6.27
2022-10-13T11:15:43.358Z,5.63
2022-10-13T11:18:54.119Z,6.00
2022-10-13T11:21:23.611Z,6.07
2022-10-13T11:23:51.482Z,5.93
2022-10-13T11:26:32.335Z,6.33
2022-10-13T11:29:00.612Z,6.30
2022-10-13T11:31:47.533Z,6.47
2022-10-13T11:34:29.310Z,6.20
2022-10-13T11:37:00.851Z,6.53
2022-10-13T11:40:15.013Z,6.00
2022-10-13T11:42:59.508Z,5.80
2022-10-13T11:45:58.295Z,6.07
2022-10-13T11:48:57.255Z,6.60
2022-10-13T11:51:35.442Z,6.57
2022-10-13T11:54:17.627Z,6.53
2022-10-13T11:56:48.633Z,6.47
2022-10-13T11:59:26.035Z,6.80
2022-10-13T12:01:58.870Z,6.27
2022-10-13T12:04:29.447Z,6.27
2022-10-13T12:07:01.375Z,6.60
2022-10-13T12:09:32.472Z,7.27
2022-10-13T12:12:04.084Z,6.70
2022-10-13T12:17:23.771Z,7.23
2022-10-13T12:19:52.803Z,7.27
2022-10-13T12:22:21.107Z,7.43
2022-10-13T12:25:00.432Z,7.53
2022-10-13T12:27:32.407Z,8.07
2022-10-13T12:30:00.505Z,7.47
2022-10-13T12:32:30.931Z,7.77
2022-10-13T12:35:11.736Z,7.73
2022-10-13T12:37:39.618Z,7.10
2022-10-13T12:40:14.758Z,8.77
2022-10-13T12:42:43.991Z,8.23
2022-10-13T12:45:16.855Z,8.77
2022-10-13T12:47:50.878Z,9.70
2022-10-13T12:50:23.614Z,9.43
2022-10-13T12:52:53.297Z,9.60
2022-10-13T12:55:24.255Z,10.00
2022-10-13T12:57:52.905Z,10.10
2022-10-13T13:00:26.428Z,10.00
2022-10-13T13:02:56.725Z,9.30
2022-10-13T13:05:31.852Z,10.40
2022-10-13T13:08:03.884Z,9.97
2022-10-13T13:10:35.007Z,10.03
2022-10-13T13:13:14.896Z,8.80
2022-10-13T13:15:42.715Z,10.40
2022-10-13T13:18:35.795Z,9.77
2022-10-13T13:21:06.221Z,9.87
2022-10-13T13:23:35.672Z,10.60
2022-10-13T13:26:13.055Z,10.30
2022-10-13T13:28:45.699Z,9.87
2022-10-13T13:31:15.817Z,10.10
2022-10-13T13:33:43.885Z,10.33
2022-10-13T13:36:16.849Z,9.57
2022-10-13T13:38:47.616Z,10.43
2022-10-13T13:41:17.686Z,10.33
2022-10-13T13:43:45.943Z,10.43
2022-10-13T13:46:17.058Z,10.03
2022-10-13T13:48:45.162Z,8.50
2022-10-13T13:51:12.979Z,8.43
2022-10-13T13:53:40.919Z,8.40
2022-10-13T13:56:12.745Z,8.83
2022-10-13T13:58:42.083Z,8.40
2022-10-13T14:01:10.628Z,7.67
2022-10-13T14:03:38.611Z,7.60
2022-10-13T14:06:09.104Z,8.67
2022-10-13T14:08:41.704Z,8.07
2022-10-13T14:11:10.453Z,7.87
2022-10-13T14:13:38.356Z,8.23
2022-10-13T14:16:08.299Z,8.80
2022-10-13T14:18:36.136Z,8.80
2022-10-13T14:21:07.076Z,10.23
2022-10-13T14:23:35.967Z,9.37
2022-10-13T14:26:07.686Z,9.23
2022-10-13T14:28:35.510Z,9.73
2022-10-13T14:31:07.643Z,9.80
2022-10-13T14:33:36.770Z,9.50
2022-10-13T14:36:06.175Z,9.97
2022-10-13T14:38:34.995Z,11.23
2022-10-13T14:41:03.948Z,9.87
2022-10-13T14:43:32.247Z,10.53
2022-10-13T14:46:02.777Z,10.83
2022-10-13T14:48:33.200Z,10.40
2022-10-13T14:51:04.178Z,11.17
2022-10-13T14:53:34.003Z,10.73
2022-10-13T14:56:02.217Z,11.27
2022-10-13T14:58:32.136Z,11.10
2022-10-13T15:00:59.938Z,10.10
2022-10-13T15:03:28.076Z,10.27
2022-10-13T15:05:57.264Z,10.93
2022-10-13T15:08:25.846Z,11.07
2022-10-13T15:11:00.568Z,10.40
2022-10-13T15:13:28.486Z,10.83
2022-10-13T15:16:00.840Z,9.00
2022-10-13T15:18:29.472Z,8.83
2022-10-13T15:20:59.106Z,8.13
2022-10-13T15:23:27.236Z,8.20
2022-10-13T15:25:57.081Z,8.60
2022-10-13T15:28:25.638Z,7.07
2022-10-13T15:30:53.521Z,7.30
2022-10-13T15:33:22.970Z,6.83
2022-10-13T15:35:51.087Z,6.90
2022-10-13T15:38:21.637Z,6.37
2022-10-13T15:40:50.246Z,5.97
2022-10-13T15:43:18.768Z,5.73
2022-10-13T15:45:55.320Z,5.93
2022-10-13T15:48:23.250Z,5.50
2022-10-13T15:50:51.089Z,5.60
2022-10-13T15:53:20.707Z,6.20
2022-10-13T15:55:48.750Z,6.60
2022-10-13T15:58:16.908Z,6.93
2022-10-13T16:00:45.353Z,7.07
2022-10-13T16:03:15.897Z,7.30
2022-10-13T16:05:44.695Z,7.43
2022-10-13T16:08:13.239Z,9.27
2022-10-13T16:10:43.452Z,8.93
2022-10-13T16:13:15.017Z,9.80
2022-10-13T16:15:43.219Z,9.53
2022-10-13T16:18:11.073Z,9.83
2022-10-13T16:20:40.674Z,9.83
2022-10-13T16:23:08.490Z,10.10
2022-10-13T16:25:39.903Z,9.80
2022-10-13T16:28:09.263Z,10.00
2022-10-13T16:30:38.190Z,10.23
2022-10-13T16:33:05.983Z,10.00
2022-10-13T16:35:35.232Z,10.50
2022-10-13T16:38:03.079Z,9.37
2022-10-13T16:40:30.991Z,10.17
2022-10-13T16:42:59.043Z,10.37
2022-10-13T16:45:47.865Z,10.13
2022-10-13T16:48:16.055Z,10.93
2022-10-13T16:50:43.900Z,10.43
2022-10-13T16:53:11.814Z,12.30
2022-10-13T16:55:40.512Z,11.70
2022-10-13T16:58:08.700Z,11.30
2022-10-13T17:00:38.412Z,11.00
2022-10-13T17:03:06.614Z,11.37
2022-10-13T17:05:34.887Z,11.10
2022-10-13T17:08:02.830Z,11.73
2022-10-13T17:10:30.727Z,12.70
2022-10-13T17:13:01.933Z,12.67
2022-10-13T17:15:31.606Z,12.40
2022-10-13T17:18:00.985Z,13.60
2022-10-13T17:20:28.836Z,13.73
2022-10-13T17:22:56.710Z,14.00
2022-10-13T17:25:24.554Z,14.37
2022-10-13T17:27:53.148Z,15.23
2022-10-13T17:30:20.961Z,14.00
2022-10-13T17:32:48.832Z,14.40
2022-10-13T17:35:18.427Z,15.33
2022-10-13T17:37:46.304Z,16.13
2022-10-13T17:40:15.119Z,16.57
2022-10-13T17:42:43.075Z,15.87
2022-10-13T17:45:11.443Z,17.37
2022-10-13T17:47:39.252Z,15.70
2022-10-13T17:50:07.685Z,16.63
2022-10-13T17:52:37.305Z,17.50
2022-10-13T17:55:05.793Z,17.80
2022-10-13T17:57:33.678Z,16.80
2022-10-13T18:00:03.974Z,17.93
2022-10-13T18:02:40.200Z,16.80
2022-10-13T18:05:08.998Z,17.07
2022-10-13T18:07:38.217Z,16.63
2022-10-13T18:10:06.917Z,17.20
2022-10-13T18:12:34.866Z,16.23
2022-10-13T18:15:02.727Z,18.67
2022-10-13T18:17:30.659Z,18.20
2022-10-13T18:19:58.524Z,17.97
2022-10-13T18:22:26.522Z,17.43
2022-10-13T18:24:57.211Z,16.63
2022-10-13T18:27:25.297Z,15.70
2022-10-13T18:29:53.104Z,16.57
2022-10-13T18:32:23.062Z,17.10
2022-10-13T18:34:50.885Z,15.00
2022-10-13T18:37:19.063Z,16.90
2022-10-13T18:39:48.025Z,14.90
2022-10-13T18:42:17.219Z,15.03
2022-10-13T18:44:45.018Z,14.63
2022-10-13T18:47:12.839Z,13.57
2022-10-13T18:49:40.655Z,14.23
2022-10-13T18:52:08.472Z,12.60
2022-10-13T18:54:39.971Z,13.70
2022-10-13T18:57:07.840Z,13.23
2022-10-13T18:59:38.617Z,12.80
2022-10-13T19:02:06.487Z,12.47
2022-10-13T19:04:36.527Z,13.07
2022-10-13T19:07:04.688Z,12.73
2022-10-13T19:09:32.794Z,13.33
2022-10-13T19:12:00.623Z,13.83
2022-10-13T19:14:28.559Z,13.73
2022-10-13T19:17:01.805Z,13.70
2022-10-13T19:19:30.723Z,13.57
2022-10-13T19:22:00.939Z,15.00
2022-10-13T19:24:28.816Z,15.43
2022-10-13T19:26:57.119Z,16.00
2022-10-13T19:29:25.031Z,12.93
2022-10-13T19:31:52.875Z,14.03
2022-10-13T19:34:22.099Z,13.33
2022-10-13T19:36:49.925Z,13.53
2022-10-13T19:39:20.894Z,14.67
2022-10-13T19:41:49.824Z,14.10
2022-10-13T19:44:19.261Z,14.50
2022-10-13T19:46:48.443Z,13.97
2022-10-13T19:49:18.681Z,15.27
2022-10-13T19:51:49.019Z,15.43
2022-10-13T19:54:18.803Z,15.97
2022-10-13T19:56:48.416Z,18.23
2022-10-13T19:59:17.439Z,18.80
2022-10-13T20:01:45.332Z,15.60
2022-10-13T20:04:18.332Z,18.07
2022-10-13T20:06:47.771Z,15.20
2022-10-13T20:09:15.785Z,15.27
2022-10-13T20:11:46.095Z,15.00
2022-10-13T20:14:14.548Z,16.67
2022-10-13T20:16:43.110Z,15.77
2022-10-13T20:19:13.274Z,17.17
2022-10-13T20:21:43.050Z,15.43
2022-10-13T20:24:13.721Z,16.47
2022-10-13T20:26:41.757Z,18.03
2022-10-13T20:29:09.867Z,18.87
2022-10-13T20:31:37.889Z,17.93
2022-10-13T20:34:05.868Z,16.70
2022-10-13T20:36:38.598Z,16.93
2022-10-13T20:39:06.958Z,16.97
2022-10-13T20:41:36.595Z,16.33
2022-10-13T20:44:04.788Z,17.67
2022-10-13T20:46:34.705Z,17.20
2022-10-13T20:49:10.813Z,18.73
2022-10-13T20:51:39.854Z,17.73
2022-10-13T20:54:07.795Z,18.30
2022-10-13T20:56:37.707Z,17.23
2022-10-13T20:59:07.630Z,18.60
2022-10-13T21:01:36.951Z,18.80
2022-10-13T21:04:05.965Z,17.87
2022-10-13T21:06:34.046Z,17.97
2022-10-13T21:09:02.629Z,18.70
2022-10-13T21:11:30.524Z,17.80
2022-10-13T21:13:59.879Z,17.57
2022-10-13T21:16:29.202Z,17.33
2022-10-13T21:18:58.608Z,18.73
2022-10-13T21:21:28.308Z,17.77
2022-10-13T21:23:58.010Z,18.20
2022-10-13T21:26:27.415Z,15.93
2022-10-13T21:28:55.625Z,16.17
2022-10-13T21:31:26.361Z,16.57
2022-10-13T21:33:55.211Z,14.97
2022-10-13T21:36:24.655Z,16.30
2022-10-13T21:38:55.550Z,15.53
2022-10-13T21:41:23.944Z,15.80
2022-10-13T21:43:52.852Z,17.40
2022-10-13T21:46:24.974Z,15.87
2022-10-13T21:48:57.454Z,16.07
2022-10-13T21:51:29.053Z,18.03
2022-10-13T21:53:58.728Z,18.43
2022-10-13T21:56:27.659Z,18.23
2022-10-13T21:58:56.290Z,19.03
2022-10-13T22:01:25.732Z,19.73
2022-10-13T22:03:56.101Z,20.90
2022-10-13T22:06:28.371Z,18.80
2022-10-13T22:08:58.338Z,23.27
2022-10-13T22:11:28.403Z,21.03
2022-10-13T22:13:57.530Z,23.27
2022-10-13T22:16:28.725Z,20.90
2022-10-13T22:18:57.886Z,21.07
2022-10-13T22:21:27.911Z,18.57
2022-10-13T22:23:57.619Z,19.43
2022-10-13T22:26:25.816Z,19.73
2022-10-13T22:28:53.793Z,19.47
2022-10-13T22:31:21.851Z,21.20
2022-10-13T22:33:53.512Z,19.03
2022-10-13T22:36:23.374Z,16.63
2022-10-13T22:38:53.165Z,16.77
2022-10-13T22:41:21.808Z,17.87
2022-10-13T22:43:51.084Z,19.57
2022-10-13T22:46:21.044Z,17.73
2022-10-13T22:48:49.144Z,17.07
2022-10-13T22:51:20.658Z,14.93
2022-10-13T22:53:49.629Z,16.03
2022-10-13T22:56:19.859Z,17.80
2022-10-13T22:58:50.866Z,14.00
2022-10-13T23:01:19.663Z,15.20
2022-10-13T23:03:48.556Z,17.17
2022-10-13T23:06:20.855Z,16.00
2022-10-13T23:08:49.446Z,14.47
2022-10-13T23:11:18.074Z,13.63
2022-10-13T23:13:46.338Z,14.00
2022-10-13T23:16:16.754Z,14.03
2022-10-13T23:18:44.634Z,14.10
2022-10-13T23:21:28.033Z,15.73
2022-10-13T23:23:56.946Z,13.53
2022-10-13T23:26:24.887Z,13.07
2022-10-13T23:28:53.644Z,13.20
2022-10-13T23:31:21.483Z,15.67
2022-10-13T23:33:49.324Z,14.73
2022-10-13T23:36:19.031Z,14.23
2022-10-13T23:38:55.937Z,13.70
2022-10-13T23:41:24.329Z,13.33
2022-10-13T23:43:52.178Z,13.73
2022-10-13T23:46:20.480Z,14.70
2022-10-13T23:48:48.456Z,14.43
2022-10-13T23:51:18.313Z,14.67
2022-10-13T23:53:46.966Z,15.80
2022-10-13T23:56:17.466Z,15.27
2022-10-13T23:58:46.227Z,14.67
